Time;durP1;ratioP1;P1;durP2;ratioP2;P2;SDS_P1;SDS_P2;PMS_P1;PMS_P2;Temp;Humidity;BMP_temperature;BMP_pressure;BME280_temperature;BME280_humidity;BME280_pressure;Samples;Min_cycle;Max_cycle;Signal;HPM_P1;HPM_P2
2022/12/19 00:01:31;;;;;;;55.50;25.27;;;;;;;-2.10;100.00;101454.34;5082686;28;20801;-71
2022/12/19 00:04:01;;;;;;;52.88;25.33;;;;;;;-1.98;100.00;101493.53;5072655;28;20117;-72
2022/12/19 00:06:33;;;;;;;57.05;25.70;;;;;;;-1.98;100.00;101497.00;5083916;28;20128;-72
2022/12/19 00:08:59;;;;;;;56.33;25.10;;;;;;;-2.04;100.00;101486.47;5082732;28;20044;-72
2022/12/19 00:11:28;;;;;;;55.60;25.73;;;;;;;-2.04;100.00;101480.41;5086537;27;20060;-69
2022/12/19 00:13:55;;;;;;;57.85;26.10;;;;;;;-2.08;100.00;101469.13;5076557;28;20044;-71
2022/12/19 00:16:24;;;;;;;55.83;26.38;;;;;;;-2.03;100.00;101475.25;5080530;28;20055;-70
2022/12/19 00:18:52;;;;;;;54.38;24.70;;;;;;;-1.87;100.00;101474.75;5084714;28;20052;-72
2022/12/19 00:21:22;;;;;;;54.53;25.20;;;;;;;-1.98;100.00;101460.66;5082573;28;20180;-71
2022/12/19 00:23:49;;;;;;;60.55;26.48;;;;;;;-1.80;100.00;101476.63;5075760;28;20040;-71
2022/12/19 00:26:28;;;;;;;56.83;25.30;;;;;;;-1.81;100.00;101466.22;5079601;28;20496;-71
2022/12/19 00:28:58;;;;;;;51.15;24.02;;;;;;;-1.82;100.00;101470.53;5081339;28;20040;-71
2022/12/19 00:31:28;;;;;;;54.78;25.23;;;;;;;-1.81;100.00;101461.91;5083963;28;20063;-73
2022/12/19 00:33:55;;;;;;;57.10;26.02;;;;;;;-2.00;100.00;101431.19;5072360;28;20052;-70
2022/12/19 00:36:24;;;;;;;58.20;24.92;;;;;;;-1.80;100.00;101462.75;5069225;28;20515;-70
2022/12/19 00:38:53;;;;;;;61.15;25.35;;;;;;;-1.78;100.00;101458.47;5080098;28;20048;-71
2022/12/19 00:41:25;;;;;;;55.50;25.75;;;;;;;-1.93;100.00;101427.03;5082383;28;20143;-72
2022/12/19 00:43:57;;;;;;;56.15;25.02;;;;;;;-1.72;100.00;101456.00;5073796;28;20097;-71
2022/12/19 00:46:28;;;;;;;54.95;24.85;;;;;;;-1.71;100.00;101460.34;5083857;28;20066;-72
2022/12/19 00:48:54;;;;;;;57.55;25.42;;;;;;;-1.78;100.00;101453.28;5085521;28;20052;-71
2022/12/19 00:51:23;;;;;;;57.45;25.98;;;;;;;-1.77;100.00;101455.03;5081511;28;20097;-72
2022/12/19 00:53:52;;;;;;;52.80;24.42;;;;;;;-1.90;100.00;101458.25;5074624;28;20048;-71
2022/12/19 00:56:22;;;;;;;57.03;25.85;;;;;;;-1.88;100.00;101460.00;5076695;28;20056;-72
2022/12/19 00:58:49;;;;;;;52.97;25.48;;;;;;;-1.85;100.00;101470.47;5084705;28;20411;-72
2022/12/19 01:01:18;;;;;;;55.95;24.58;;;;;;;-1.82;100.00;101462.72;5076216;28;20090;-71
2022/12/19 01:03:46;;;;;;;53.72;25.33;;;;;;;-1.76;100.00;101467.19;5069527;28;20366;-72
2022/12/19 01:06:33;;;;;;;57.33;25.85;;;;;;;-1.69;100.00;101455.19;5071428;28;20047;-70
2022/12/19 01:09:00;;;;;;;56.33;25.65;;;;;;;-1.63;100.00;101452.72;5069695;28;20056;-72
2022/12/19 01:14:13;;;;;;;54.30;24.90;;;;;;;-1.63;100.00;101452.72;5067439;28;20706;-71
2022/12/19 01:16:48;;;;;;;56.47;26.08;;;;;;;-1.71;100.00;101451.69;5077786;28;20062;-70
2022/12/19 01:19:14;;;;;;;59.67;26.42;;;;;;;-1.69;100.00;101461.25;5075120;28;20500;-71
2022/12/19 01:21:41;;;;;;;55.60;25.73;;;;;;;-1.68;100.00;101455.22;5082889;28;20044;-72
2022/12/19 01:24:08;;;;;;;50.53;25.17;;;;;;;-1.64;100.00;101466.53;5069737;28;20106;-70
2022/12/19 01:26:35;;;;;;;54.45;24.92;;;;;;;-1.64;100.00;101466.53;5083984;27;20054;-71
2022/12/19 01:29:01;;;;;;;54.85;25.60;;;;;;;-1.64;100.00;101461.34;5083578;28;20044;-70
2022/12/19 01:31:28;;;;;;;54.83;25.55;;;;;;;-1.62;100.00;101451.88;5079857;28;20141;-71
2022/12/19 01:33:54;;;;;;;61.70;26.45;;;;;;;-1.58;100.00;101456.28;5077846;28;20159;-71
2022/12/19 01:36:21;;;;;;;58.95;26.08;;;;;;;-1.67;100.00;101427.53;5074743;28;21066;-71
2022/12/19 01:38:48;;;;;;;58.33;26.17;;;;;;;-1.68;100.00;101421.47;5079921;28;20047;-73
2022/12/19 01:41:14;;;;;;;56.03;25.00;;;;;;;-1.54;100.00;101439.91;5072983;28;20051;-71
2022/12/19 01:43:59;;;;;;;57.80;25.80;;;;;;;-1.52;100.00;101441.69;5076671;27;20062;-71
2022/12/19 01:46:32;;;;;;;54.33;24.83;;;;;;;-1.55;100.00;101430.34;5070168;28;20063;-71
2022/12/19 01:49:01;;;;;;;59.13;26.92;;;;;;;-1.53;100.00;101433.84;5080989;28;20056;-71
2022/12/19 01:51:36;;;;;;;59.38;25.70;;;;;;;-1.55;100.00;101438.13;5072495;28;20048;-71
2022/12/19 01:54:08;;;;;;;57.30;25.70;;;;;;;-1.58;100.00;101418.22;5074349;28;20139;-70
2022/12/19 01:56:40;;;;;;;59.45;27.33;;;;;;;-1.59;100.00;101437.22;5076707;28;20058;-71
2022/12/19 01:59:11;;;;;;;59.70;27.60;;;;;;;-1.83;100.00;101414.25;5073738;28;20055;-70
2022/12/19 02:01:39;;;;;;;59.42;26.63;;;;;;;-1.83;100.00;101411.66;5077322;28;20722;-70
2022/12/19 02:04:19;;;;;;;60.63;27.05;;;;;;;-1.93;100.00;101395.88;5071831;28;20133;-71
2022/12/19 02:06:46;;;;;;;57.75;27.40;;;;;;;-1.89;100.00;101397.69;5077468;28;20044;-70
2022/12/19 02:09:14;;;;;;;58.00;27.27;;;;;;;-1.91;100.00;101389.88;5078374;28;20072;-70
2022/12/19 02:11:41;;;;;;;59.65;27.52;;;;;;;-1.75;100.00;101419.59;5081353;28;20279;-70
2022/12/19 02:14:08;;;;;;;57.60;27.10;;;;;;;-1.70;100.00;101419.66;5066065;28;20062;-71
2022/12/19 02:17:16;;;;;;;56.33;25.75;;;;;;;-1.65;100.00;101425.84;5073979;28;20059;-71
2022/12/19 02:20:04;;;;;;;54.65;25.92;;;;;;;-1.64;100.00;101419.81;5017969;28;20145;-71
2022/12/19 02:23:04;;;;;;;60.08;26.20;;;;;;;-1.61;100.00;101409.47;5077557;28;20063;-71
2022/12/19 02:25:37;;;;;;;57.65;26.77;;;;;;;-1.60;100.00;101412.09;5081309;28;20058;-70
2022/12/19 02:28:30;;;;;;;56.33;26.08;;;;;;;-1.62;100.00;101397.34;5084631;28;20101;-72
2022/12/19 02:31:21;;;;;;;60.70;26.80;;;;;;;-1.57;100.00;101401.75;5085315;28;20044;-71
2022/12/19 02:34:06;;;;;;;55.13;26.02;;;;;;;-1.55;100.00;101389.66;5077359;28;20044;-71
2022/12/19 02:36:44;;;;;;;57.00;25.98;;;;;;;-1.56;100.00;101387.03;5087743;28;20083;-71
2022/12/19 02:39:25;;;;;;;59.97;26.50;;;;;;;-1.54;100.00;101385.34;5089036;28;20154;-71
2022/12/19 02:41:57;;;;;;;61.58;28.02;;;;;;;-1.59;100.00;101377.50;5082447;28;20048;-71
2022/12/19 02:44:38;;;;;;;59.88;27.17;;;;;;;-1.64;100.00;101379.13;5070965;28;20062;-71
2022/12/19 02:47:07;;;;;;;59.83;27.38;;;;;;;-1.80;100.00;101367.59;5081438;27;20059;-71
2022/12/19 02:49:35;;;;;;;61.13;28.15;;;;;;;-1.66;100.00;101395.53;5091708;28;20043;-71
2022/12/19 02:52:25;;;;;;;54.45;26.90;;;;;;;-1.67;100.00;101388.56;5087049;27;20040;-71
2022/12/19 02:54:56;;;;;;;58.05;27.13;;;;;;;-1.65;100.00;101392.94;5070252;28;20076;-71
2022/12/19 02:57:22;;;;;;;;;;;;;;;-1.61;100.00;101381.78;5075829;28;20120;-71
2022/12/19 02:59:59;;;;;;;60.15;27.02;;;;;;;-1.58;100.00;101368.84;5087460;28;20014;-70
2022/12/19 03:02:54;;;;;;;56.78;26.20;;;;;;;-1.51;100.00;101346.44;5084370;27;20054;-71
2022/12/19 03:05:53;;;;;;;59.83;27.50;;;;;;;-1.67;100.00;101321.94;5080815;28;20040;-71
2022/12/19 03:08:38;;;;;;;62.10;27.30;;;;;;;-1.45;100.00;101370.81;5085369;28;20052;-71
2022/12/19 03:11:12;;;;;;;61.35;27.65;;;;;;;-1.48;100.00;101356.91;5082319;28;20109;-71
2022/12/19 03:14:02;;;;;;;61.22;26.92;;;;;;;-1.44;100.00;101364.78;5077616;27;20040;-71
2022/12/19 03:16:29;;;;;;;64.10;27.67;;;;;;;-1.46;100.00;101363.00;5081468;28;20048;-71
2022/12/19 03:18:56;;;;;;;61.25;27.63;;;;;;;-1.47;100.00;101371.63;5086171;28;20055;-70
2022/12/19 03:21:35;;;;;;;60.75;27.77;;;;;;;-1.51;100.00;101380.22;5083260;28;20555;-71
2022/12/19 03:24:04;;;;;;;60.10;28.13;;;;;;;-1.70;100.00;101352.16;5077735;28;20048;-71
2022/12/19 03:26:36;;;;;;;64.85;29.92;;;;;;;-1.60;100.00;101373.16;5078634;28;20044;-70
2022/12/19 03:29:14;;;;;;;66.97;28.83;;;;;;;-1.60;100.00;101364.47;5082340;28;20052;-72
2022/12/19 03:31:42;;;;;;;65.30;28.73;;;;;;;-1.60;100.00;101364.47;5080420;28;20047;-71
2022/12/19 03:34:17;;;;;;;57.63;27.90;;;;;;;-1.56;100.00;101363.66;5072972;28;20125;-72
2022/12/19 03:36:48;;;;;;;61.88;27.95;;;;;;;-1.57;100.00;101364.50;5083400;28;20380;-72
2022/12/19 03:39:18;;;;;;;60.72;28.40;;;;;;;-1.56;100.00;101355.88;5079485;28;20048;-71
2022/12/19 03:44:34;;;;;;;60.25;26.90;;;;;;;-1.47;100.00;101361.25;5068717;28;20510;-72
2022/12/19 03:47:42;;;;;;;60.10;27.50;;;;;;;-1.38;100.00;101356.19;5082838;28;20671;-72
2022/12/19 03:50:10;;;;;;;55.80;26.80;;;;;;;-1.35;100.00;101353.66;5023112;28;20619;-72
2022/12/19 03:52:57;;;;;;;54.38;26.33;;;;;;;-1.36;100.00;101345.81;5069652;28;20412;-72
2022/12/19 03:55:27;;;;;;;63.08;28.80;;;;;;;-1.31;100.00;101362.38;5078742;28;20113;-70
2022/12/19 03:58:22;;;;;;;58.28;27.40;;;;;;;-1.32;100.00;101361.50;5077012;28;20074;-71
2022/12/19 04:00:50;;;;;;;56.95;26.52;;;;;;;-1.41;100.00;101325.84;5083561;28;20047;-71
2022/12/19 04:03:18;;;;;;;54.53;26.33;;;;;;;-1.25;100.00;101352.94;5078403;28;20408;-71
2022/12/19 04:05:47;;;;;;;61.83;27.50;;;;;;;-1.16;100.00;101365.22;5077414;28;20047;-72
2022/12/19 04:08:15;;;;;;;57.08;26.40;;;;;;;-1.13;100.00;101352.28;5078017;28;20135;-71
2022/12/19 04:10:48;;;;;;;57.38;26.75;;;;;;;-1.11;100.00;101356.66;5074905;28;20048;-71
2022/12/19 04:13:19;;;;;;;62.63;27.80;;;;;;;-1.24;100.00;101323.50;5072456;28;20055;-71
2022/12/19 04:15:58;;;;;;;58.25;26.70;;;;;;;-1.13;100.00;101345.38;5075629;28;20052;-71
2022/12/19 04:18:26;;;;;;;55.15;26.23;;;;;;;-1.12;100.00;101343.63;5075404;28;20136;-71
2022/12/19 04:21:10;;;;;;;62.00;27.50;;;;;;;-1.11;100.00;101340.19;5077699;28;20048;-71
2022/12/19 04:23:44;;;;;;;60.55;28.20;;;;;;;-1.28;100.00;101319.13;5080505;28;20051;-73
2022/12/19 04:26:12;;;;;;;65.03;29.15;;;;;;;-1.22;100.00;101341.72;5075375;28;20062;-71
2022/12/19 04:28:49;;;;;;;59.05;28.85;;;;;;;-1.24;100.00;101344.28;5084271;28;20055;-73
2022/12/19 04:31:18;;;;;;;64.13;28.30;;;;;;;-1.15;100.00;101344.47;5073735;28;20044;-71
2022/12/19 04:33:45;;;;;;;63.95;27.73;;;;;;;-1.26;100.00;101316.56;5074709;28;20119;-71
2022/12/19 04:36:12;;;;;;;60.20;27.20;;;;;;;-1.17;100.00;101324.50;5076621;28;20468;-71
2022/12/19 04:38:38;;;;;;;63.55;26.95;;;;;;;-1.23;100.00;101307.06;5081238;28;20048;-71
2022/12/19 04:41:05;;;;;;;57.88;27.42;;;;;;;-1.21;100.00;101301.91;5078761;28;20044;-72
2022/12/19 04:43:31;;;;;;;60.35;28.85;;;;;;;-1.00;100.00;101327.34;5073926;28;20050;-71
2022/12/19 04:45:58;;;;;;;60.65;27.67;;;;;;;-0.96;100.00;101318.75;5076962;28;20448;-71
2022/12/19 04:48:25;;;;;;;62.15;27.27;;;;;;;-0.98;100.00;101321.31;5080490;28;20036;-71
2022/12/19 04:50:52;;;;;;;57.83;27.45;;;;;;;-1.10;100.00;101292.53;5078049;28;20048;-70
2022/12/19 04:53:18;;;;;;;61.33;27.80;;;;;;;-0.96;100.00;101321.34;5085109;28;20056;-70
2022/12/19 04:55:45;;;;;;;59.92;29.17;;;;;;;-1.00;100.00;101317.81;5075122;28;20076;-71
2022/12/19 04:58:12;;;;;;;61.50;27.77;;;;;;;-1.13;100.00;101297.69;5078039;28;20562;-71
2022/12/19 05:00:45;;;;;;;57.03;27.17;;;;;;;-0.98;100.00;101317.84;5075703;28;20044;-71
2022/12/19 05:03:12;;;;;;;65.72;28.80;;;;;;;-0.99;100.00;101319.56;5081720;28;20518;-71
2022/12/19 05:05:39;;;;;;;59.35;27.05;;;;;;;-0.98;100.00;101317.84;5070653;28;20138;-71
2022/12/19 05:08:06;;;;;;;61.78;28.45;;;;;;;-1.11;100.00;101293.41;5080133;28;20089;-71
2022/12/19 05:10:34;;;;;;;59.58;28.45;;;;;;;-0.96;100.00;101322.22;5085111;28;20044;-71
2022/12/19 05:13:01;;;;;;;60.67;28.30;;;;;;;-0.99;100.00;101329.09;5072181;28;20109;-71
2022/12/19 05:15:28;;;;;;;69.63;28.88;;;;;;;-1.19;100.00;101297.59;5068144;28;20047;-71
2022/12/19 05:17:54;;;;;;;64.97;28.45;;;;;;;-1.11;100.00;101316.78;5078360;28;21436;-72
2022/12/19 05:20:21;;;;;;;59.45;27.65;;;;;;;-1.06;100.00;101323.78;5077131;28;20052;-71
2022/12/19 05:22:47;;;;;;;62.83;28.42;;;;;;;-1.01;100.00;101326.47;5079412;28;20487;-72
2022/12/19 05:25:14;;;;;;;57.63;27.05;;;;;;;-0.96;100.00;101323.94;5069491;28;20040;-71
2022/12/19 05:27:41;;;;;;;63.38;28.90;;;;;;;-0.90;100.00;101329.22;5078887;28;20040;-72
2022/12/19 05:30:08;;;;;;;63.30;28.23;;;;;;;-0.86;100.00;101311.09;5079172;28;20043;-72
2022/12/19 05:32:35;;;;;;;64.10;28.95;;;;;;;-0.82;100.00;101301.63;5076401;28;20040;-72
2022/12/19 05:35:01;;;;;;;60.08;28.63;;;;;;;-0.89;100.00;101312.75;5078454;28;20060;-72
2022/12/19 05:37:27;;;;;;;64.57;28.65;;;;;;;-0.88;100.00;101318.00;5081383;28;20397;-71
2022/12/19 05:39:54;;;;;;;69.03;29.90;;;;;;;-0.88;100.00;101319.72;5082973;28;20036;-71
2022/12/19 05:42:20;;;;;;;65.18;29.40;;;;;;;-0.86;100.00;101323.22;5075920;28;20060;-71
2022/12/19 05:44:47;;;;;;;63.45;28.70;;;;;;;-0.89;100.00;101318.84;5070344;28;20044;-71
2022/12/19 05:47:13;;;;;;;66.53;29.45;;;;;;;-0.83;100.00;101318.94;5080028;28;20055;-71
2022/12/19 05:49:40;;;;;;;60.95;27.77;;;;;;;-0.97;100.00;101285.81;5085410;28;20491;-71
2022/12/19 05:52:07;;;;;;;63.10;28.63;;;;;;;-0.97;100.00;101280.59;5077214;28;20403;-71
2022/12/19 05:54:33;;;;;;;61.85;28.25;;;;;;;-0.79;100.00;101320.72;5067446;28;20167;-71
2022/12/19 05:57:00;;;;;;;60.60;28.10;;;;;;;-0.77;100.00;101305.13;5074956;28;20040;-70
2022/12/19 05:59:26;;;;;;;59.55;27.83;;;;;;;-0.88;100.00;101280.72;5083448;28;20044;-71
2022/12/19 06:01:53;;;;;;;60.20;28.75;;;;;;;-0.74;100.00;101305.16;5083344;28;20121;-72
2022/12/19 06:04:20;;;;;;;65.00;29.67;;;;;;;-0.68;100.00;101310.47;5073271;28;20447;-71
2022/12/19 06:06:46;;;;;;;60.67;29.25;;;;;;;-0.71;100.00;101303.50;5076103;28;20075;-70
2022/12/19 06:09:13;;;;;;;64.43;29.25;;;;;;;-0.73;100.00;101293.91;5081158;28;20048;-73
2022/12/19 06:11:39;;;;;;;62.08;28.85;;;;;;;-0.63;100.00;101308.78;5079936;28;20052;-71
2022/12/19 06:14:06;;;;;;;63.47;30.08;;;;;;;-0.64;100.00;101307.06;5064074;28;20052;-71
2022/12/19 06:16:32;;;;;;;61.28;28.10;;;;;;;-0.68;100.00;101304.41;5076768;28;20056;-71
2022/12/19 06:18:59;;;;;;;62.10;29.90;;;;;;;-0.64;100.00;101307.06;5081318;28;20067;-71
2022/12/19 06:21:26;;;;;;;59.92;28.42;;;;;;;-0.65;100.00;101317.44;5079945;28;20047;-71
2022/12/19 06:23:53;;;;;;;59.30;27.70;;;;;;;-0.71;100.00;101316.50;5078954;28;20036;-71
2022/12/19 06:26:21;;;;;;;60.58;29.17;;;;;;;-0.71;100.00;101311.28;5070201;28;20611;-71
2022/12/19 06:28:50;;;;;;;69.53;31.45;;;;;;;-0.72;100.00;101322.56;5076855;28;20048;-71
2022/12/19 06:31:18;;;;;;;61.22;28.58;;;;;;;-0.68;100.00;101320.88;5074003;28;20051;-72
2022/12/19 06:33:45;;;;;;;61.85;28.95;;;;;;;-0.72;100.00;101303.47;5077603;28;20507;-71
2022/12/19 06:36:19;;;;;;;62.28;27.80;;;;;;;-0.62;100.00;101315.72;5072157;28;20071;-73
2022/12/19 06:38:46;;;;;;;61.92;28.83;;;;;;;-0.65;100.00;101326.13;5082650;28;20044;-72
2022/12/19 06:44:00;;;;;;;67.13;30.42;;;;;;;-0.60;100.00;101318.34;5075007;28;20525;-72
2022/12/19 06:46:28;;;;;;;60.95;28.35;;;;;;;-0.55;100.00;101327.97;5071897;28;20040;-71
2022/12/19 06:48:54;;;;;;;62.70;28.20;;;;;;;-0.52;100.00;101322.81;5078578;28;20047;-74
2022/12/19 06:51:21;;;;;;;64.72;29.98;;;;;;;-0.51;100.00;101318.50;5073200;28;20480;-71
2022/12/19 06:53:49;;;;;;;64.32;29.05;;;;;;;-0.75;100.00;101277.41;5078097;28;20055;-71
2022/12/19 06:56:16;;;;;;;63.22;30.40;;;;;;;-0.47;100.00;101313.31;5070205;28;20045;-71
2022/12/19 06:58:44;;;;;;;66.60;30.27;;;;;;;-0.46;100.00;101309.88;5077286;28;20100;-71
2022/12/19 07:01:36;;;;;;;66.53;29.40;;;;;;;-0.45;100.00;101314.22;5078898;28;20040;-72
2022/12/19 07:04:04;;;;;;;66.03;29.08;;;;;;;-0.46;100.00;101309.00;5076316;28;20128;-70
2022/12/19 07:06:34;;;;;;;63.80;29.45;;;;;;;-0.48;100.00;101310.72;5075677;28;20070;-71
2022/12/19 07:09:02;;;;;;;65.43;28.70;;;;;;;-0.52;100.00;101307.22;5074606;28;20062;-71
2022/12/19 07:11:28;;;;;;;67.82;30.92;;;;;;;-0.48;100.00;101287.31;5081872;28;20643;-70
2022/12/19 07:13:54;;;;;;;61.28;29.60;;;;;;;-0.51;100.00;101293.34;5076242;28;20488;-71
2022/12/19 07:16:26;;;;;;;63.47;29.55;;;;;;;-0.47;100.00;101292.50;5071512;28;20052;-71
2022/12/19 07:18:53;;;;;;;65.55;29.27;;;;;;;-0.44;100.00;101289.94;5075935;28;20059;-71
2022/12/19 07:21:19;;;;;;;66.03;29.27;;;;;;;-0.61;100.00;101267.19;5086246;28;20507;-71
2022/12/19 07:23:46;;;;;;;68.35;29.95;;;;;;;-0.39;100.00;101298.69;5079049;28;20159;-73
2022/12/19 07:26:12;;;;;;;64.07;29.98;;;;;;;-0.48;100.00;101274.31;5073910;28;20043;-70
2022/12/19 07:28:39;;;;;;;65.28;29.65;;;;;;;-0.36;100.00;101306.53;5074243;28;20654;-71
2022/12/19 07:31:05;;;;;;;66.15;29.45;;;;;;;-0.45;100.00;101297.72;5084234;28;20052;-71
2022/12/19 07:33:32;;;;;;;68.85;30.80;;;;;;;-0.45;100.00;101298.59;5079696;28;20181;-71
2022/12/19 07:35:59;;;;;;;67.03;31.10;;;;;;;-0.50;100.00;101294.22;5071872;28;20149;-71
2022/12/19 07:38:25;;;;;;;77.88;36.55;;;;;;;-0.42;100.00;101297.78;5083466;28;20055;-72
2022/12/19 07:40:52;;;;;;;71.68;32.58;;;;;;;-0.40;100.00;101309.97;5086285;28;20043;-71
2022/12/19 07:43:18;;;;;;;67.97;31.05;;;;;;;-0.46;100.00;101304.66;5076111;28;20575;-71
2022/12/19 07:45:45;;;;;;;65.22;31.17;;;;;;;-0.45;100.00;101305.53;5075354;28;20079;-71
2022/12/19 07:48:12;;;;;;;67.85;31.30;;;;;;;-0.51;100.00;101308.09;5078116;28;20048;-71
2022/12/19 07:50:39;;;;;;;68.78;30.88;;;;;;;-0.50;100.00;101320.25;5077931;28;20147;-72
2022/12/19 07:53:06;;;;;;;67.18;29.73;;;;;;;-0.55;100.00;101316.69;5078792;28;20452;-72
2022/12/19 07:55:32;;;;;;;68.13;30.17;;;;;;;-0.73;100.00;101278.31;5074342;28;20656;-71
2022/12/19 07:57:59;;;;;;;69.35;31.80;;;;;;;-0.54;100.00;101314.13;5071552;28;20071;-71
2022/12/19 08:00:26;;;;;;;67.00;31.38;;;;;;;-0.51;100.00;101313.28;5076925;28;20672;-71
2022/12/19 08:02:52;;;;;;;67.05;30.35;;;;;;;-0.48;100.00;101319.41;5083974;28;20055;-72
2022/12/19 08:05:19;;;;;;;65.45;30.85;;;;;;;-0.46;100.00;101306.41;5079139;28;20047;-71
2022/12/19 08:07:45;;;;;;;71.05;32.42;;;;;;;-0.46;100.00;101302.06;5084946;28;20045;-71
2022/12/19 08:10:13;;;;;;;67.97;29.98;;;;;;;-0.48;100.00;101298.59;5088255;28;20161;-71
2022/12/19 08:12:41;;;;;;;70.32;31.42;;;;;;;-0.45;100.00;101296.00;5081782;28;22168;-72
2022/12/19 08:15:07;;;;;;;70.88;31.15;;;;;;;-0.54;100.00;101279.44;5081178;28;20075;-71
2022/12/19 08:17:37;;;;;;;69.65;32.13;;;;;;;-0.39;100.00;101309.09;5080226;28;20059;-71
2022/12/19 08:20:05;;;;;;;68.45;31.27;;;;;;;-0.41;100.00;101304.72;5081844;28;20039;-71
2022/12/19 08:22:32;;;;;;;69.32;31.50;;;;;;;-0.57;100.00;101280.25;5073975;28;20059;-71
2022/12/19 08:24:59;;;;;;;70.10;32.28;;;;;;;-0.48;100.00;101300.31;5075967;28;20112;-71
2022/12/19 08:27:26;;;;;;;72.68;32.08;;;;;;;-0.38;100.00;101309.97;5076320;28;20421;-71
2022/12/19 08:29:53;;;;;;;71.60;32.17;;;;;;;-0.49;100.00;101285.56;5078420;28;20081;-71
2022/12/19 08:32:20;;;;;;;72.65;32.35;;;;;;;-0.45;100.00;101276.91;5083054;28;20055;-71
2022/12/19 08:34:48;;;;;;;72.10;31.85;;;;;;;-0.24;100.00;101302.31;5076241;28;20048;-71
2022/12/19 08:37:15;;;;;;;81.47;32.38;;;;;;;-0.21;100.00;101305.84;5074114;28;20131;-72
2022/12/19 08:39:42;;;;;;;74.70;33.75;;;;;;;-0.23;100.00;101302.34;5080180;28;20135;-71
2022/12/19 08:42:09;;;;;;;72.22;33.00;;;;;;;-0.36;100.00;101287.44;5078673;28;20071;-72
2022/12/19 08:44:35;;;;;;;72.38;30.88;;;;;;;-0.27;100.00;101303.16;5077050;28;20062;-72
2022/12/19 08:47:02;;;;;;;76.05;32.25;;;;;;;-0.30;100.00;101297.03;5076056;28;20070;-71
2022/12/19 08:49:28;;;;;;;79.22;32.25;;;;;;;-0.28;100.00;101300.53;5082688;27;20074;-72
2022/12/19 08:51:55;;;;;;;72.53;32.17;;;;;;;-0.31;100.00;101288.34;5074166;28;20051;-72
2022/12/19 08:54:21;;;;;;;78.13;33.35;;;;;;;-0.29;100.00;101277.97;5075711;28;20480;-71
2022/12/19 08:56:48;;;;;;;76.22;33.22;;;;;;;-0.39;100.00;101256.19;5068651;28;20545;-74
2022/12/19 08:59:15;;;;;;;84.72;33.70;;;;;;;-0.36;100.00;101264.91;5062929;28;20045;-73
2022/12/19 09:01:57;;;;;;;75.75;33.35;;;;;;;-0.20;100.00;101302.38;5069961;28;21005;-72
2022/12/19 09:04:24;;;;;;;78.00;33.10;;;;;;;-0.19;100.00;101300.66;5073319;28;20051;-72
2022/12/19 09:07:11;;;;;;;82.75;34.28;;;;;;;-0.19;100.00;101285.03;5066145;28;20220;-71
2022/12/19 09:09:41;;;;;;;78.15;34.88;;;;;;;-0.19;100.00;101285.91;5072430;28;20365;-72
2022/12/19 09:12:08;;;;;;;76.40;32.83;;;;;;;-0.15;100.00;101302.41;5077359;28;20079;-71
2022/12/19 09:14:34;;;;;;;71.65;31.52;;;;;;;-0.11;100.00;101299.00;5064481;28;20479;-72
2022/12/19 09:17:01;;;;;;;72.07;31.90;;;;;;;-0.10;100.00;101301.63;5066256;28;20127;-71
2022/12/19 09:19:30;;;;;;;80.85;33.30;;;;;;;-0.07;100.00;101303.38;5064448;28;20056;-71
2022/12/19 09:21:57;;;;;;;78.15;33.42;;;;;;;-0.04;100.00;101303.44;5072758;28;20058;-71
2022/12/19 09:24:24;;;;;;;73.63;32.63;;;;;;;-0.07;100.00;101295.59;5074741;28;20048;-72
2022/12/19 09:26:51;;;;;;;80.65;33.53;;;;;;;-0.03;100.00;101307.78;5063056;28;20052;-72
2022/12/19 09:29:18;;;;;;;69.32;32.28;;;;;;;-0.04;100.00;101301.69;5079580;28;20040;-71
2022/12/19 09:31:50;;;;;;;76.72;32.72;;;;;;;0.04;100.00;101300.88;5069889;28;20120;-72
2022/12/19 09:34:27;;;;;;;72.63;32.25;;;;;;;0.03;100.00;101281.78;5077506;28;20052;-72
2022/12/19 09:37:09;;;;;;;69.65;31.45;;;;;;;-0.02;100.00;101267.88;5069735;28;20048;-72
2022/12/19 09:39:44;;;;;;;76.32;33.53;;;;;;;0.18;100.00;101302.78;5075653;28;20146;-72
2022/12/19 09:42:24;;;;;;;72.07;31.38;;;;;;;0.19;100.00;101296.72;5075118;28;20171;-72
2022/12/19 09:45:11;;;;;;;71.23;32.93;;;;;;;0.24;100.00;101292.41;5078466;28;20141;-72
2022/12/19 09:47:48;;;;;;;69.22;31.92;;;;;;;0.29;100.00;101293.34;5068448;28;20629;-71
2022/12/19 09:50:51;;;;;;;70.60;32.35;;;;;;;0.31;100.00;101298.56;5081342;28;20131;-71
2022/12/19 09:53:35;;;;;;;71.05;33.42;;;;;;;0.30;100.00;101286.41;5073906;28;20059;-72
2022/12/19 09:56:01;;;;;;;74.10;33.38;;;;;;;0.33;100.00;101289.00;5071211;28;20042;-71
2022/12/19 09:58:41;;;;;;;72.55;32.60;;;;;;;0.35;100.00;101297.72;5079446;28;20421;-71
2022/12/19 10:01:19;;;;;;;73.97;33.22;;;;;;;0.31;100.00;101277.72;5077937;28;20041;-72
2022/12/19 10:03:57;;;;;;;66.57;30.92;;;;;;;0.39;100.00;101281.25;5069372;28;20639;-71
2022/12/19 10:06:23;;;;;;;72.95;32.97;;;;;;;0.45;100.00;101286.53;5065587;28;20068;-70
2022/12/19 10:09:18;;;;;;;70.20;32.38;;;;;;;0.45;100.00;101281.31;5081834;28;20044;-73
2022/12/19 10:12:13;;;;;;;67.00;31.80;;;;;;;0.50;100.00;101279.59;5068646;28;20048;-72
2022/12/19 10:15:32;;;;;;;70.68;33.08;;;;;;;0.53;100.00;101278.75;5075008;28;20044;-72
2022/12/19 10:18:25;;;;;;;68.97;32.17;;;;;;;0.54;100.00;101284.00;5067780;28;20132;-70
2022/12/19 10:21:27;;;;;;;72.53;33.50;;;;;;;0.55;100.00;101269.22;5068800;28;20478;-72
2022/12/19 10:24:26;;;;;;;81.85;34.08;;;;;;;0.53;100.00;101268.34;5070956;28;20044;-72
2022/12/19 10:27:10;;;;;;;71.60;31.85;;;;;;;0.55;100.00;101264.03;5067416;28;20101;-72
2022/12/19 10:29:47;;;;;;;71.65;33.67;;;;;;;0.43;100.00;101232.66;5088951;28;20301;-71
2022/12/19 10:32:26;;;;;;;69.82;33.13;;;;;;;0.58;100.00;101251.00;5070872;28;20044;-71
2022/12/19 10:34:54;;;;;;;76.78;34.00;;;;;;;0.63;100.00;101254.53;5074937;28;20035;-72
2022/12/19 10:37:39;;;;;;;79.53;34.30;;;;;;;0.65;100.00;101251.06;5067535;28;20048;-73
2022/12/19 10:40:33;;;;;;;69.30;32.78;;;;;;;0.66;100.00;101259.75;5070915;28;20072;-73
2022/12/19 10:43:31;;;;;;;75.82;33.67;;;;;;;0.68;100.00;101255.41;5079516;28;20183;-72
2022/12/19 10:46:18;;;;;;;70.75;31.13;;;;;;;0.72;100.00;101249.38;5073452;28;20139;-72
2022/12/19 10:48:49;;;;;;;70.07;33.70;;;;;;;0.56;100.00;101230.16;5077643;28;20082;-71
2022/12/19 10:51:23;;;;;;;73.00;33.85;;;;;;;0.58;100.00;101236.25;5080097;28;20072;-71
2022/12/19 10:53:55;;;;;;;71.13;33.63;;;;;;;0.65;100.00;101258.88;5083018;28;20170;-72
2022/12/19 10:56:25;;;;;;;77.68;35.13;;;;;;;0.62;100.00;101258.00;5076693;28;20519;-72
2022/12/19 10:59:00;;;;;;;72.75;33.50;;;;;;;0.56;100.00;101264.03;5080554;28;20071;-71
2022/12/19 11:01:34;;;;;;;74.32;32.53;;;;;;;0.52;100.00;101248.34;5080353;28;20059;-74
2022/12/19 11:04:16;;;;;;;75.47;34.33;;;;;;;0.55;100.00;101240.56;5076201;28;20132;-72
2022/12/19 11:06:50;;;;;;;80.63;36.05;;;;;;;0.53;100.00;101231.84;5068681;28;20411;-73
2022/12/19 11:09:28;;;;;;;73.32;33.53;;;;;;;0.56;100.00;101221.47;5076696;28;20067;-72
2022/12/19 11:12:19;;;;;;;80.20;35.85;;;;;;;0.58;100.00;101204.09;5070685;28;20067;-73
2022/12/19 11:15:08;;;;;;;76.03;33.92;;;;;;;0.63;100.00;101200.66;5076117;28;20056;-73
2022/12/19 11:18:11;;;;;;;74.93;35.05;;;;;;;0.64;100.00;101206.72;5071656;27;20044;-72
2022/12/19 11:21:01;;;;;;;80.20;35.88;;;;;;;0.66;100.00;101207.63;5079233;28;20060;-73
2022/12/19 11:24:08;;;;;;;77.22;35.10;;;;;;;0.63;100.00;101203.25;5074637;28;20074;-70
2022/12/19 11:26:54;;;;;;;73.78;33.13;;;;;;;0.64;100.00;101206.72;5065606;28;20063;-71
2022/12/19 11:29:45;;;;;;;71.55;33.60;;;;;;;0.66;100.00;101205.88;5072395;28;20128;-71
2022/12/19 11:32:35;;;;;;;76.78;34.00;;;;;;;0.69;100.00;101208.50;5069815;28;20105;-72
2022/12/19 11:35:25;;;;;;;75.88;34.85;;;;;;;0.65;100.00;101206.75;5074193;28;21653;-73